createdAt,value
2022-09-10T00:02:10.904Z,13.52
2022-09-10T00:04:38.013Z,11.75
2022-09-10T00:07:05.405Z,17.70
2022-09-10T00:09:32.565Z,9.30
2022-09-10T00:12:03.297Z,14.10
2022-09-10T00:14:30.729Z,11.82
2022-09-10T00:17:00.482Z,2.58
2022-09-10T00:19:28.619Z,4.45
2022-09-10T00:21:55.717Z,5.63
2022-09-10T00:24:22.870Z,10.25
2022-09-10T00:26:50.689Z,5.65
2022-09-10T00:29:24.000Z,4.03
2022-09-10T00:31:51.817Z,5.43
2022-09-10T00:34:18.981Z,7.20
2022-09-10T00:36:46.801Z,6.95
2022-09-10T00:39:16.464Z,8.70
2022-09-10T00:41:45.880Z,6.18
2022-09-10T00:45:30.934Z,7.88
2022-09-10T00:48:17.125Z,10.15
2022-09-10T00:50:46.564Z,7.22
2022-09-10T00:53:16.854Z,10.27
2022-09-10T00:55:45.616Z,6.32
2022-09-10T00:58:13.918Z,3.63
2022-09-10T01:00:41.887Z,21.10
2022-09-10T01:03:11.358Z,3.95
2022-09-10T01:05:42.341Z,3.13
2022-09-10T01:08:22.685Z,2.00
2022-09-10T01:11:39.705Z,5.90
2022-09-10T01:15:31.008Z,5.47
2022-09-10T01:19:27.462Z,7.25
2022-09-10T01:22:33.728Z,3.83
2022-09-10T02:09:37.200Z,5.50
2022-09-10T02:17:51.661Z,2.95
2022-09-10T02:25:42.587Z,6.93
2022-09-10T02:30:13.698Z,12.18
2022-09-10T02:34:33.630Z,8.95
2022-09-10T02:45:59.023Z,6.80
2022-09-10T02:48:27.926Z,11.30
2022-09-10T02:50:57.800Z,11.68
2022-09-10T02:53:27.441Z,11.45
2022-09-10T02:55:57.976Z,8.65
2022-09-10T02:58:25.108Z,11.60
2022-09-10T03:00:52.246Z,11.75
2022-09-10T03:03:19.545Z,9.48
2022-09-10T03:05:47.425Z,4.18
2022-09-10T03:08:14.458Z,3.75
2022-09-10T03:10:45.385Z,8.68
2022-09-10T03:13:12.740Z,8.90
2022-09-10T03:19:45.934Z,6.32
2022-09-10T03:22:13.096Z,7.13
2022-09-10T03:24:40.059Z,7.15
2022-09-10T03:27:07.092Z,5.03
2022-09-10T03:29:36.367Z,10.48
2022-09-10T03:32:40.554Z,6.60
2022-09-10T03:38:25.549Z,6.40
2022-09-10T03:40:53.952Z,7.00
2022-09-10T03:43:32.619Z,4.85
2022-09-10T03:51:12.569Z,4.15
2022-09-10T03:54:09.931Z,4.57
2022-09-10T03:56:39.723Z,4.93
2022-09-10T03:59:35.214Z,6.10
2022-09-10T04:09:01.709Z,7.05
2022-09-10T04:14:55.707Z,5.65
2022-09-10T04:17:24.151Z,11.20
2022-09-10T04:19:51.668Z,12.38
2022-09-10T04:22:19.658Z,8.48
2022-09-10T04:24:46.607Z,8.02
2022-09-10T04:27:29.568Z,19.42
2022-09-10T04:30:04.974Z,10.48
2022-09-10T04:32:45.134Z,6.55
2022-09-10T04:35:15.363Z,6.38
2022-09-10T04:37:43.270Z,6.95
2022-09-10T04:40:12.135Z,12.43
2022-09-10T04:42:39.575Z,8.48
2022-09-10T04:45:24.168Z,18.90
2022-09-10T05:06:31.308Z,12.20
2022-09-10T05:09:53.298Z,6.82
2022-09-10T05:13:02.062Z,16.08
2022-09-10T05:15:37.269Z,14.00
2022-09-10T05:18:06.013Z,12.93
2022-09-10T05:20:35.811Z,31.45
2022-09-10T05:23:04.230Z,8.95
2022-09-10T05:25:34.647Z,10.25
2022-09-10T05:28:02.123Z,12.57
2022-09-10T05:30:32.800Z,8.55
2022-09-10T05:33:01.349Z,7.55
2022-09-10T05:35:31.579Z,8.23
2022-09-10T05:38:14.477Z,5.13
2022-09-10T05:40:46.938Z,4.18
2022-09-10T05:43:14.686Z,4.85
2022-09-10T05:45:43.698Z,9.55
2022-09-10T05:48:11.242Z,5.53
2022-09-10T05:51:07.676Z,10.60
2022-09-10T05:53:46.915Z,11.80
2022-09-10T05:56:14.312Z,13.55
2022-09-10T05:59:10.577Z,21.63
2022-09-10T06:01:55.787Z,18.52
2022-09-10T06:04:28.170Z,15.43
2022-09-10T06:06:55.498Z,9.93
2022-09-10T06:09:22.577Z,12.23
2022-09-10T06:12:22.767Z,9.40
2022-09-10T06:14:49.842Z,2.85
2022-09-10T06:17:20.085Z,3.78
2022-09-10T06:19:48.434Z,8.88
2022-09-10T06:22:18.618Z,4.68
2022-09-10T06:24:49.361Z,7.35
2022-09-10T06:27:20.634Z,14.30
2022-09-10T06:29:49.260Z,12.45
2022-09-10T06:32:16.655Z,13.52
2022-09-10T06:34:56.951Z,17.85
2022-09-10T06:37:30.111Z,9.77
2022-09-10T06:39:58.321Z,19.80
2022-09-10T06:42:25.860Z,15.27
2022-09-10T06:45:06.556Z,9.10
2022-09-10T06:48:34.767Z,9.95
2022-09-10T06:50:57.262Z,10.60
2022-09-10T06:53:29.686Z,5.65
2022-09-10T06:56:00.174Z,5.40
2022-09-10T06:58:31.420Z,5.30
2022-09-10T07:00:59.025Z,5.57
2022-09-10T07:03:26.016Z,7.20
2022-09-10T07:05:54.879Z,12.63
2022-09-10T07:08:25.455Z,10.18
2022-09-10T07:11:00.301Z,10.93
2022-09-10T07:13:27.949Z,8.60
2022-09-10T07:15:55.805Z,8.88
2022-09-10T07:18:23.779Z,11.63
2022-09-10T07:20:50.699Z,8.13
2022-09-10T07:23:20.195Z,10.85
2022-09-10T07:25:48.982Z,11.38
2022-09-10T07:28:36.419Z,10.80
2022-09-10T07:31:28.075Z,6.38
2022-09-10T07:34:00.781Z,13.38
2022-09-10T07:36:29.546Z,14.53
2022-09-10T07:39:01.569Z,11.40
2022-09-10T07:41:31.872Z,15.33
2022-09-10T07:44:00.187Z,11.93
2022-09-10T07:46:32.761Z,11.25
2022-09-10T07:49:01.344Z,8.55
2022-09-10T07:51:30.039Z,22.05
2022-09-10T07:54:00.044Z,5.38
2022-09-10T07:56:35.422Z,6.85
2022-09-10T07:59:05.506Z,17.90
2022-09-10T08:01:39.680Z,14.73
2022-09-10T08:04:07.511Z,12.43
2022-09-10T08:06:39.075Z,9.55
2022-09-10T08:09:09.535Z,6.32
2022-09-10T08:11:42.238Z,10.32
2022-09-10T08:14:13.392Z,12.88
2022-09-10T08:16:44.273Z,19.27
2022-09-10T08:19:16.007Z,12.25
2022-09-10T08:21:45.284Z,14.35
2022-09-10T08:24:13.997Z,6.80
2022-09-10T08:26:44.296Z,13.25
2022-09-10T08:29:11.109Z,5.88
2022-09-10T08:31:38.911Z,2.58
2022-09-10T08:34:12.453Z,7.03
2022-09-10T08:36:42.241Z,2.85
2022-09-10T08:39:09.906Z,6.93
2022-09-10T08:41:38.358Z,2.85
2022-09-10T08:44:10.328Z,6.63
2022-09-10T08:46:43.982Z,1.73
2022-09-10T08:49:23.734Z,5.65
2022-09-10T08:51:56.830Z,6.05
2022-09-10T08:54:27.056Z,4.00
2022-09-10T08:56:58.393Z,2.45
2022-09-10T08:59:31.047Z,3.45
2022-09-10T09:02:01.257Z,7.93
2022-09-10T09:04:43.254Z,4.07
2022-09-10T09:07:15.900Z,9.63
2022-09-10T09:09:51.504Z,7.43
2022-09-10T09:12:24.375Z,1.70
2022-09-10T09:15:08.725Z,3.13
2022-09-10T09:17:51.691Z,5.00
2022-09-10T09:20:37.065Z,3.55
2022-09-10T09:23:17.757Z,2.75
2022-09-10T09:25:48.929Z,2.65
2022-09-10T09:28:47.531Z,4.35
2022-09-10T09:31:31.426Z,7.35
2022-09-10T09:34:34.175Z,2.42
2022-09-10T09:37:10.395Z,6.05
2022-09-10T09:40:07.313Z,9.45
2022-09-10T09:42:46.923Z,5.38
2022-09-10T09:45:26.177Z,2.00
2022-09-10T09:47:54.567Z,3.60
2022-09-10T09:50:22.907Z,6.30
2022-09-10T09:52:55.175Z,5.65
2022-09-10T09:55:37.754Z,3.03
2022-09-10T09:58:23.979Z,5.55
2022-09-10T10:01:05.948Z,8.20
2022-09-10T10:03:36.108Z,7.00
2022-09-10T10:06:06.115Z,6.53
2022-09-10T10:08:37.886Z,4.78
2022-09-10T10:11:05.298Z,4.60
2022-09-10T10:13:41.131Z,5.28
2022-09-10T10:16:24.547Z,7.07
2022-09-10T10:18:51.626Z,4.90
2022-09-10T10:21:46.975Z,8.73
2022-09-10T10:24:34.036Z,1.50
2022-09-10T10:27:00.931Z,3.00
2022-09-10T10:29:28.108Z,1.75
2022-09-10T10:31:56.188Z,3.05
2022-09-10T10:34:47.533Z,9.57
2022-09-10T10:37:21.215Z,7.90
2022-09-10T10:40:14.911Z,9.30
2022-09-10T10:42:48.040Z,2.20
2022-09-10T10:45:23.847Z,5.28
2022-09-10T10:47:54.908Z,6.78
2022-09-10T10:50:31.317Z,2.00
2022-09-10T10:53:26.815Z,6.55
2022-09-10T10:56:04.391Z,6.40
2022-09-10T10:58:37.712Z,10.10
2022-09-10T11:01:15.942Z,6.32
2022-09-10T11:04:04.671Z,7.45
2022-09-10T11:06:39.205Z,4.53
2022-09-10T11:09:23.507Z,3.53
2022-09-10T11:12:03.737Z,5.60
2022-09-10T11:14:39.774Z,12.40
2022-09-10T11:17:13.162Z,5.55
2022-09-10T11:20:29.027Z,9.70
2022-09-10T11:23:03.657Z,7.57
2022-09-10T11:25:39.224Z,4.50
2022-09-10T11:28:12.579Z,3.65
2022-09-10T11:30:48.802Z,4.13
2022-09-10T11:33:25.962Z,8.85
2022-09-10T11:36:19.162Z,9.25
2022-09-10T11:38:54.951Z,5.30
2022-09-10T11:41:23.491Z,5.78
2022-09-10T11:44:36.617Z,8.05
2022-09-10T11:47:12.508Z,4.80
2022-09-10T11:49:43.612Z,13.75
2022-09-10T11:52:12.214Z,6.72
2022-09-10T11:54:39.651Z,9.38
2022-09-10T11:57:31.221Z,10.30
2022-09-10T12:00:20.377Z,6.30
2022-09-10T12:03:04.002Z,5.55
2022-09-10T12:05:43.706Z,10.27
2022-09-10T12:08:29.507Z,4.72
2022-09-10T12:11:14.672Z,4.75
2022-09-10T12:13:42.061Z,9.35
2022-09-10T12:16:19.275Z,10.48
2022-09-10T12:18:49.086Z,7.38
2022-09-10T12:21:26.389Z,2.55
2022-09-10T12:23:54.334Z,3.05
2022-09-10T12:26:22.226Z,5.18
2022-09-10T12:28:49.531Z,5.57
2022-09-10T12:31:18.746Z,15.65
2022-09-10T12:33:45.566Z,12.82
2022-09-10T12:36:14.864Z,4.00
2022-09-10T12:38:44.675Z,11.55
2022-09-10T12:41:14.786Z,5.43
2022-09-10T12:43:42.518Z,3.35
2022-09-10T12:46:10.177Z,6.22
2022-09-10T12:48:39.958Z,9.65
2022-09-10T12:51:48.610Z,6.65
2022-09-10T12:54:49.850Z,3.35
2022-09-10T12:57:32.018Z,9.02
2022-09-10T13:00:02.297Z,6.05
2022-09-10T13:02:33.508Z,12.15
2022-09-10T13:05:40.232Z,8.43
2022-09-10T13:08:11.367Z,8.07
2022-09-10T13:10:39.274Z,13.50
2022-09-10T13:13:08.690Z,11.85
2022-09-10T13:15:39.147Z,6.13
2022-09-10T13:18:09.322Z,8.55
2022-09-10T13:20:36.327Z,7.78
2022-09-10T13:23:09.426Z,3.00
2022-09-10T13:28:31.632Z,16.70
2022-09-10T13:31:03.748Z,14.00
2022-09-10T13:33:34.527Z,10.45
2022-09-10T13:36:13.511Z,13.70
2022-09-10T13:39:06.909Z,10.80
2022-09-10T13:42:11.117Z,7.95
2022-09-10T13:45:03.167Z,14.90
2022-09-10T13:48:07.965Z,5.82
2022-09-10T13:50:39.979Z,6.07
2022-09-10T13:53:08.908Z,4.07
2022-09-10T13:55:35.885Z,3.58
2022-09-10T13:58:14.497Z,8.50
2022-09-10T14:00:53.459Z,4.32
2022-09-10T14:03:23.609Z,8.95
2022-09-10T14:05:53.476Z,9.00
2022-09-10T14:08:30.400Z,8.77
2022-09-10T14:11:00.852Z,4.68
2022-09-10T14:13:33.741Z,6.40
2022-09-10T14:16:02.357Z,8.20
2022-09-10T14:18:51.545Z,5.55
2022-09-10T14:21:19.637Z,6.07
2022-09-10T14:23:47.666Z,6.95
2022-09-10T14:26:26.305Z,7.95
2022-09-10T14:28:53.252Z,7.20
2022-09-10T14:31:26.650Z,4.47
2022-09-10T14:33:56.004Z,8.52
2022-09-10T14:36:33.555Z,10.48
2022-09-10T14:39:03.406Z,4.60
2022-09-10T14:41:33.201Z,5.07
2022-09-10T14:44:42.478Z,8.45
2022-09-10T14:47:10.215Z,5.63
2022-09-10T14:49:39.125Z,8.77
2022-09-10T14:52:06.504Z,3.80
2022-09-10T14:54:34.615Z,6.03
2022-09-10T14:57:03.434Z,3.83
2022-09-10T14:59:36.195Z,5.97
2022-09-10T15:02:08.333Z,4.00
2022-09-10T15:04:35.342Z,8.17
2022-09-10T15:07:02.762Z,6.47
2022-09-10T15:09:31.043Z,8.75
2022-09-10T15:12:15.393Z,10.65
2022-09-10T15:14:42.361Z,12.68
2022-09-10T15:17:13.849Z,9.95
2022-09-10T15:19:40.835Z,2.95
2022-09-10T15:22:07.601Z,6.28
2022-09-10T15:24:47.434Z,10.10
2022-09-10T15:27:21.940Z,9.95
2022-09-10T15:29:49.267Z,4.72
2022-09-10T15:32:18.263Z,5.63
2022-09-10T15:34:45.142Z,7.18
2022-09-10T15:37:11.922Z,6.95
2022-09-10T15:39:38.802Z,7.15
2022-09-10T15:42:06.198Z,7.15
2022-09-10T15:44:34.336Z,2.72
2022-09-10T15:47:02.083Z,7.25
2022-09-10T15:49:29.799Z,15.45
2022-09-10T15:51:57.390Z,8.45
2022-09-10T15:54:24.403Z,11.20
2022-09-10T15:56:51.407Z,13.70
2022-09-10T15:59:18.206Z,12.00
2022-09-10T16:01:45.125Z,13.73
2022-09-10T16:04:12.021Z,6.40
2022-09-10T16:06:40.249Z,12.45
2022-09-10T16:09:10.034Z,10.55
2022-09-10T16:11:39.131Z,11.73
2022-09-10T16:14:07.538Z,5.75
2022-09-10T16:16:35.843Z,11.63
2022-09-10T16:19:03.383Z,4.57
2022-09-10T16:21:32.293Z,7.65
2022-09-10T16:24:00.480Z,8.00
2022-09-10T16:26:29.900Z,6.32
2022-09-10T16:29:00.331Z,6.35
2022-09-10T16:31:30.341Z,5.72
2022-09-10T16:33:59.330Z,6.85
2022-09-10T16:36:26.785Z,12.48
2022-09-10T16:38:57.701Z,9.48
2022-09-10T16:41:25.560Z,15.13
2022-09-10T16:43:53.143Z,5.65
2022-09-10T16:46:20.473Z,6.35
2022-09-10T16:48:51.757Z,11.70
2022-09-10T16:51:20.046Z,9.85
2022-09-10T16:53:55.893Z,9.07
2022-09-10T16:56:23.881Z,10.80
2022-09-10T16:58:51.204Z,10.52
2022-09-10T17:01:18.723Z,9.20
2022-09-10T17:03:49.922Z,8.48
2022-09-10T17:06:21.658Z,12.30
2022-09-10T17:08:48.506Z,8.48
2022-09-10T17:11:17.553Z,7.45
2022-09-10T17:13:44.448Z,11.88
2022-09-10T17:16:16.370Z,8.18
2022-09-10T17:18:44.423Z,4.47
2022-09-10T17:21:11.508Z,9.30
2022-09-10T17:23:38.394Z,5.35
2022-09-10T17:26:09.055Z,14.82
2022-09-10T17:28:37.246Z,17.92
2022-09-10T17:31:05.055Z,11.63
2022-09-10T17:33:33.629Z,11.85
2022-09-10T17:36:02.625Z,16.13
2022-09-10T17:38:33.973Z,17.25
2022-09-10T17:41:03.010Z,12.82
2022-09-10T17:43:35.557Z,10.40
2022-09-10T17:46:07.878Z,9.18
2022-09-10T17:48:35.807Z,13.27
2022-09-10T17:51:02.843Z,6.97
2022-09-10T17:53:30.501Z,6.97
2022-09-10T17:56:07.801Z,16.50
2022-09-10T17:58:38.174Z,9.98
2022-09-10T18:01:34.027Z,7.75
2022-09-10T18:04:03.241Z,10.95
2022-09-10T18:06:30.494Z,8.77
2022-09-10T18:08:59.120Z,11.25
2022-09-10T18:11:28.778Z,8.10
2022-09-10T18:13:57.256Z,9.68
2022-09-10T18:16:26.810Z,7.85
2022-09-10T18:18:59.592Z,10.32
2022-09-10T18:21:32.583Z,10.23
2022-09-10T18:24:04.804Z,14.25
2022-09-10T18:26:39.546Z,8.77
2022-09-10T18:31:57.329Z,12.48
2022-09-10T18:34:30.356Z,16.70
2022-09-10T18:36:59.993Z,16.67
2022-09-10T18:39:37.293Z,16.33
2022-09-10T18:42:06.769Z,6.20
2022-09-10T18:44:36.575Z,15.30
2022-09-10T18:47:17.890Z,14.00
2022-09-10T18:49:59.171Z,15.73
2022-09-10T18:52:29.603Z,17.07
2022-09-10T18:54:56.715Z,18.35
2022-09-10T18:57:24.943Z,17.98
2022-09-10T18:59:55.019Z,12.40
2022-09-10T19:02:22.080Z,19.98
2022-09-10T19:05:09.743Z,22.63
2022-09-10T19:07:38.717Z,20.35
2022-09-10T19:10:07.080Z,27.98
2022-09-10T19:12:34.291Z,10.38
2022-09-10T19:15:01.444Z,14.50
2022-09-10T19:17:32.880Z,18.70
2022-09-10T19:20:00.182Z,19.80
2022-09-10T19:22:27.550Z,15.77
2022-09-10T19:24:55.792Z,13.77
2022-09-10T19:27:26.041Z,13.82
2022-09-10T19:29:53.767Z,25.52
2022-09-10T19:32:21.156Z,11.43
2022-09-10T19:34:51.896Z,15.70
2022-09-10T19:37:19.626Z,8.70
2022-09-10T19:39:49.799Z,11.75
2022-09-10T19:42:17.206Z,15.05
2022-09-10T19:44:44.052Z,13.70
2022-09-10T19:47:10.938Z,9.38
2022-09-10T19:49:39.187Z,12.98
2022-09-10T19:52:06.629Z,18.40
2022-09-10T19:54:33.561Z,13.48
2022-09-10T19:57:00.463Z,7.50
2022-09-10T19:59:28.253Z,12.85
2022-09-10T20:01:55.295Z,8.90
2022-09-10T20:04:22.270Z,14.82
2022-09-10T20:06:52.229Z,12.90
2022-09-10T20:09:19.336Z,17.48
2022-09-10T20:11:46.235Z,10.07
2022-09-10T20:14:14.192Z,13.32
2022-09-10T20:16:43.842Z,12.45
2022-09-10T20:19:13.248Z,13.32
2022-09-10T20:21:42.285Z,8.82
2022-09-10T20:24:10.407Z,13.07
2022-09-10T20:26:41.306Z,11.10
2022-09-10T20:29:14.322Z,11.13
2022-09-10T20:31:46.355Z,24.92
2022-09-10T20:34:17.131Z,23.02
2022-09-10T20:36:44.235Z,14.90
2022-09-10T20:39:24.046Z,15.90
2022-09-10T20:41:50.963Z,14.75
2022-09-10T20:44:18.283Z,11.48
2022-09-10T20:46:49.859Z,14.25
2022-09-10T20:49:17.094Z,17.50
2022-09-10T20:51:44.968Z,12.10
2022-09-10T20:54:14.995Z,13.65
2022-09-10T20:56:42.695Z,18.02
2022-09-10T20:59:20.842Z,38.75
2022-09-10T21:01:50.905Z,19.05
2022-09-10T21:04:19.309Z,18.48
2022-09-10T21:06:46.352Z,13.25
2022-09-10T21:09:13.618Z,19.90
2022-09-10T21:11:40.850Z,25.00
2022-09-10T21:14:09.226Z,15.00
2022-09-10T21:16:39.083Z,38.72
2022-09-10T21:19:14.519Z,23.25
2022-09-10T21:21:42.757Z,21.55
2022-09-10T21:24:22.621Z,26.42
2022-09-10T21:26:50.389Z,41.80
2022-09-10T21:29:20.821Z,27.13
2022-09-10T21:31:50.603Z,18.23
2022-09-10T21:34:17.855Z,24.85
2022-09-10T21:36:47.918Z,20.35
2022-09-10T21:39:17.343Z,21.65
2022-09-10T21:41:47.121Z,27.60
2022-09-10T21:44:19.879Z,20.08
2022-09-10T21:46:51.308Z,21.00
2022-09-10T21:49:19.961Z,18.17
2022-09-10T21:51:49.560Z,24.00
2022-09-10T21:54:20.423Z,17.70
2022-09-10T21:56:56.859Z,22.52
2022-09-10T21:59:25.927Z,13.48
2022-09-10T22:01:54.739Z,16.77
2022-09-10T22:04:24.753Z,26.02
2022-09-10T22:07:11.699Z,30.58
2022-09-10T22:29:52.677Z,18.90
2022-09-10T22:32:56.628Z,27.17
2022-09-10T22:36:24.555Z,20.25
2022-09-10T22:43:14.726Z,21.67
2022-09-10T22:49:49.646Z,27.58
2022-09-10T22:52:54.010Z,23.55
2022-09-10T22:55:38.703Z,21.13
2022-09-10T22:58:20.743Z,23.38
2022-09-10T23:00:54.360Z,14.18
2022-09-10T23:03:22.129Z,20.02
2022-09-10T23:06:15.115Z,15.82
2022-09-10T23:08:44.777Z,25.00
2022-09-10T23:11:22.398Z,15.95
2022-09-10T23:13:52.836Z,21.45
2022-09-10T23:16:31.727Z,15.68
2022-09-10T23:22:41.279Z,14.07
2022-09-10T23:25:36.063Z,15.98
2022-09-10T23:28:16.418Z,18.70
2022-09-10T23:30:47.815Z,11.85
2022-09-10T23:33:14.810Z,15.68
2022-09-10T23:35:50.040Z,13.50
2022-09-10T23:38:18.292Z,14.98
2022-09-10T23:40:51.074Z,14.35
2022-09-10T23:46:58.909Z,17.23
2022-09-10T23:50:02.391Z,12.73
2022-09-10T23:52:54.131Z,15.60
2022-09-10T23:56:36.045Z,22.17
